Weather observations for the past three days for
General Wm J Fox Airfield
Metric (Imperial)
Date Time (pdt) Wind (kph) Vis. (km) Weather Sky Cond. Temperature (ºC) Relative Humidity Wind Chill (°C) Heat Index (°C) Pressure Precipitation (cm)
Air Dwpt 6 hour altimeter (cm) sea level (mb) 1 hr 3 hr 6 hr
Max. Min.
31 04:56 SW 28 16.09 Fair CLR 21.1 10.6 23.3 21.1 51% 76 1011.1
31 03:56 W 30 16.09 Fair CLR 21.7 11.1 51% 76.02 1011.3
31 02:56 SW 22 16.09 Fair CLR 22.2 10.6 48% 76 1010.8
31 01:56 SW 17 16.09 Fair CLR 23.3 11.7 48% 76.02 1011.1
31 00:56 NW 7 16.09 Fair CLR 21.7 12.2 55% 76.05 1011.5
30 23:56 W 9 16.09 Fair CLR 22.8 12.2 51% 76.05 1011.7
30 22:56 Calm 16.09 Fair CLR 22.8 11.1 32.8 22.8 48% 76.05 1011.8
30 21:56 W 19 16.09 Fair CLR 24.4 11.1 43% 26 76.05 1011.7
30 20:56 W 26 16.09 Fair CLR 25.6 10.6 39% 26 76.02 1011.3
30 19:56 SW 22 16.09 Fair CLR 26.7 11.7 39% 27 75.95 1010.5
30 18:56 SW 28 G 39 16.09 Fair CLR 30 12.2 33% 29 75.92 1010.2
30 17:56 SW 31 16.09 Fair CLR 31.7 10.6 27% 30 75.92 1009.9
30 16:56 SW 30 G 46 16.09 Fair CLR 32.8 11.1 34.4 31.1 26% 31 75.92 1009.7
30 15:56 SW 31 G 52 16.09 Fair CLR 33.3 10 24% 32 75.95 1010.0
30 13:56 SW 31 G 44 16.09 Fair CLR 33.3 7.2 20% 31 76 1010.8
30 12:56 SW 28 G 57 16.09 Fair CLR 33.9 6.7 18% 32 76.05 1011.2
30 11:56 SW 22 G 39 16.09 Fair CLR 31.7 5 19% 30 76.07 1011.9
30 10:56 SW 20 16.09 A Few Clouds FEW050 31.1 5.6 31.7 18.9 20% 29 76.07 1011.9
30 09:56 Vrbl 6 16.09 Fair CLR 29.4 9.4 29% 28 76.07 1011.9
30 08:56 NW 7 16.09 Fair CLR 27.2 10 34% 27 76.1 1012.4
30 07:56 NW 7 16.09 Fair CLR 22.8 8.9 41% 76.12 1013.0
30 06:56 W 6 16.09 Fair CLR 18.9 8.3 50% 76.1 1012.7
30 05:56 W 11 16.09 Fair CLR 20.6 8.9 47% 76.07 1012.0
30 04:56 SW 6 16.09 Fair CLR 22.8 10 26.7 22.2 44% 76.07 1011.6
30 03:56 W 9 16.09 Fair CLR 22.8 9.4 43% 76.05 1011.6
30 02:56 W 9 16.09 Fair CLR 23.3 9.4 41% 76.05 1011.4
30 01:56 W 15 16.09 Fair CLR 25 9.4 37% 26 76.02 1011.2
30 00:56 SW 13 16.09 Fair CLR 25.6 9.4 36% 26 76.05 1011.2
29 23:56 N 7 16.09 Fair CLR 23.9 8.9 39% 25 76.05 1011.4
29 22:56 SW 22 14.48 Fair CLR 26.7 9.4 35 26.7 34% 26 76.05 1011.2
29 21:56 W 19 16.09 Fair CLR 26.7 9.4 34% 26 76.07 1011.7
29 20:56 W 19 16.09 Fair CLR 27.2 9.4 33% 27 76.05 1011.4
29 18:56 W 39 16.09 Fair and Breezy CLR 30.6 10 28% 29 75.97 1010.6
29 17:56 W 31 16.09 Fair CLR 33.9 9.4 22% 32 75.95 1010.1
29 16:56 W 24 G 46 16.09 Fair CLR 34.4 11.1 35.6 32.8 24% 33 75.95 1010.0
29 15:56 W 24 16.09 Fair CLR 33.9 11.1 25% 32 75.97 1010.4
29 14:56 W 20 G 37 16.09 Fair CLR 35 11.7 24% 34 76.02 1011.0
29 13:56 W 24 16.09 Fair CLR 33.9 10.6 24% 32 76.07 1011.9
29 12:56 SW 26 G 43 16.09 Fair CLR 34.4 11.1 24% 33 76.1 1012.1
29 11:56 SW 28 G 37 16.09 Fair CLR 33.9 10.6 24% 32 76.12 1012.6
29 10:56 SW 24 G 41 16.09 Fair CLR 33.3 10.6 33.9 23.3 25% 32 76.15 1012.7
29 09:56 W 26 16.09 Fair CLR 32.8 10.6 26% 31 76.15 1012.7
29 08:56 W 15 16.09 Fair CLR 30 11.1 31% 29 76.15 1012.9
29 07:56 W 13 16.09 Fair CLR 26.1 9.4 35% 26 76.17 1013.1
29 06:56 W 15 16.09 Fair CLR 23.9 8.9 39% 25 76.12 1012.7
29 05:56 W 19 16.09 Fair CLR 23.9 8.9 39% 25 76.1 1012.1
29 04:56 W 19 16.09 Fair CLR 23.9 8.9 26.7 22.8 39% 25 76.1 1011.9
29 03:56 W 22 16.09 Fair CLR 24.4 9.4 39% 25 76.07 1011.6
29 02:56 W 22 16.09 Fair CLR 25 10.6 40% 26 76.07 1011.5
29 01:56 S 6 16.09 Fair CLR 23.9 10.6 43% 25 76.1 1011.8
29 00:56 W 13 16.09 Fair CLR 23.9 10.6 43% 25 76.12 1012.1
28 23:56 NE 6 16.09 Fair CLR 23.9 10 42% 25 76.12 1012.3
28 22:56 W 11 16.09 Fair CLR 26.7 10.6 36.1 26.7 37% 26 76.12 1012.1
28 21:56 W 17 16.09 Fair CLR 27.2 10.6 35% 27 76.15 1012.7
28 20:56 W 15 16.09 Fair CLR 28.3 10.6 33% 27 76.12 1012.3
28 19:56 W 26 16.09 Fair CLR 30 10.6 30% 29 76.07 1012.0
28 18:56 W 26 16.09 Fair CLR 32.2 10.6 26% 31 76.07 1012.0
28 17:56 SW 28 16.09 Fair CLR 35.6 11.7 23% 34 76.05 1011.4
28 16:56 SW 22 G 43 16.09 Fair CLR 36.1 9.4 38.3 35.6 20% 34 76.02 1011.0
28 15:56 SW 28 G 44 16.09 Fair CLR 37.2 10 19% 35 76.05 1011.2
28 14:56 SW 28 G 44 16.09 Fair CLR 37.2 10 19% 35 76.07 1011.6
28 13:56 W 28 G 44 16.09 Fair CLR 37.2 10 19% 35 76.1 1012.0
28 12:56 SW 26 16.09 Fair CLR 37.2 9.4 18% 35 76.15 1012.5
28 11:56 W 19 G 39 16.09 Fair CLR 37.2 10 19% 35 76.17 1012.9
28 10:56 SW 20 G 33 16.09 Fair CLR 35.6 10.6 35.6 21.1 22% 34 76.2 1013.4
28 09:56 Calm 16.09 Fair CLR 31.7 10 26% 30 76.23 1013.7
28 08:56 Calm 16.09 Fair CLR 29.4 9.4 29% 28 76.2 1013.6
28 07:56 Calm 16.09 Fair CLR 25.6 8.9 35% 26 76.2 1013.9
28 06:56 Calm 16.09 Fair CLR 22.2 8.3 41% 76.17 1013.6
28 05:56 N 6 16.09 Fair CLR 21.1 7.8 42% 76.12 1012.8
Date Time (pdt) Wind (kph) Vis. (km) Weather Sky Cond. Air Dwpt Max. Min. Relative Humidity Wind Chill (°C) Heat Index (°C) altimeter (cm) sea level (mb) 1 hr 3 hr 6 hr
6 hour
Temperature (ºC) Pressure Precipitation (cm)